sensor_id;sensor_type;location;lat;lon;timestamp;pressure;altitude;pressure_sealevel;temperature;humidity
44349;BME280;30068;50.986;4.564;2023-02-03T00:01:26;102747.59;;;16.86;58.96
44349;BME280;30068;50.986;4.564;2023-02-03T00:03:52;102748.56;;;16.74;59.54
44349;BME280;30068;50.986;4.564;2023-02-03T00:06:17;102746.81;;;16.73;59.32
44349;BME280;30068;50.986;4.564;2023-02-03T00:08:42;102719.00;;;16.73;59.32
44349;BME280;30068;50.986;4.564;2023-02-03T00:11:07;102708.63;;;16.90;58.49
44349;BME280;30068;50.986;4.564;2023-02-03T00:13:33;102717.22;;;16.84;58.91
44349;BME280;30068;50.986;4.564;2023-02-03T00:15:59;102728.09;;;16.72;59.20
44349;BME280;30068;50.986;4.564;2023-02-03T00:18:25;102724.78;;;16.79;59.00
44349;BME280;30068;50.986;4.564;2023-02-03T00:20:51;102714.47;;;16.73;59.32
44349;BME280;30068;50.986;4.564;2023-02-03T00:23:16;102714.75;;;16.70;59.23
44349;BME280;30068;50.986;4.564;2023-02-03T00:25:41;102716.19;;;16.74;59.25
44349;BME280;30068;50.986;4.564;2023-02-03T00:28:06;102714.47;;;16.73;59.10
44349;BME280;30068;50.986;4.564;2023-02-03T00:30:35;102712.16;;;16.69;59.33
44349;BME280;30068;50.986;4.564;2023-02-03T00:33:01;102726.00;;;16.64;59.64
44349;BME280;30068;50.986;4.564;2023-02-03T00:35:26;102729.66;;;16.63;59.65
44349;BME280;30068;50.986;4.564;2023-02-03T00:37:52;102733.09;;;16.65;59.55
44349;BME280;30068;50.986;4.564;2023-02-03T00:40:18;102738.88;;;16.72;59.34
44349;BME280;30068;50.986;4.564;2023-02-03T00:42:43;102744.38;;;16.70;59.60
44349;BME280;30068;50.986;4.564;2023-02-03T00:45:08;102754.19;;;16.71;59.29
44349;BME280;30068;50.986;4.564;2023-02-03T00:47:34;102756.38;;;16.66;59.54
44349;BME280;30068;50.986;4.564;2023-02-03T00:49:59;102759.31;;;16.63;59.58
44349;BME280;30068;50.986;4.564;2023-02-03T00:52:24;102759.44;;;16.62;59.71
44349;BME280;30068;50.986;4.564;2023-02-03T00:54:49;102761.66;;;16.68;59.64
44349;BME280;30068;50.986;4.564;2023-02-03T00:57:15;102766.66;;;16.72;59.25
44349;BME280;30068;50.986;4.564;2023-02-03T00:59:40;102765.16;;;16.57;59.77
44349;BME280;30068;50.986;4.564;2023-02-03T01:02:05;102777.00;;;16.78;59.14
44349;BME280;30068;50.986;4.564;2023-02-03T01:04:30;102786.16;;;16.65;59.43
44349;BME280;30068;50.986;4.564;2023-02-03T01:06:55;102798.03;;;16.62;59.58
44349;BME280;30068;50.986;4.564;2023-02-03T01:09:22;102794.16;;;16.53;60.09
44349;BME280;30068;50.986;4.564;2023-02-03T01:11:47;102803.09;;;16.54;60.17
44349;BME280;30068;50.986;4.564;2023-02-03T01:14:13;102796.09;;;16.64;59.64
44349;BME280;30068;50.986;4.564;2023-02-03T01:16:38;102793.69;;;16.59;59.95
44349;BME280;30068;50.986;4.564;2023-02-03T01:19:04;102796.25;;;16.50;60.18
44349;BME280;30068;50.986;4.564;2023-02-03T01:21:29;102800.72;;;16.62;59.96
44349;BME280;30068;50.986;4.564;2023-02-03T01:23:54;102781.38;;;16.68;59.56
44349;BME280;30068;50.986;4.564;2023-02-03T01:26:20;102787.69;;;16.56;59.93
44349;BME280;30068;50.986;4.564;2023-02-03T01:28:49;102797.22;;;16.49;59.93
44349;BME280;30068;50.986;4.564;2023-02-03T01:31:16;102794.78;;;16.57;59.77
44349;BME280;30068;50.986;4.564;2023-02-03T01:33:41;102818.09;;;16.58;59.76
44349;BME280;30068;50.986;4.564;2023-02-03T01:36:10;102813.22;;;16.63;60.27
44349;BME280;30068;50.986;4.564;2023-02-03T01:38:36;102806.88;;;16.51;60.28
44349;BME280;30068;50.986;4.564;2023-02-03T01:41:01;102806.06;;;16.51;60.52
44349;BME280;30068;50.986;4.564;2023-02-03T01:43:28;102823.66;;;16.44;60.93
44349;BME280;30068;50.986;4.564;2023-02-03T01:45:53;102812.69;;;16.58;60.22
44349;BME280;30068;50.986;4.564;2023-02-03T01:48:18;102796.25;;;16.50;60.72
44349;BME280;30068;50.986;4.564;2023-02-03T01:50:44;102799.00;;;16.61;60.15
44349;BME280;30068;50.986;4.564;2023-02-03T01:53:09;102794.63;;;16.47;60.43
44349;BME280;30068;50.986;4.564;2023-02-03T01:55:40;102808.28;;;16.57;59.91
44349;BME280;30068;50.986;4.564;2023-02-03T01:58:08;102799.06;;;16.59;60.06
44349;BME280;30068;50.986;4.564;2023-02-03T02:00:34;102806.28;;;16.48;60.39
44349;BME280;30068;50.986;4.564;2023-02-03T02:02:59;102796.56;;;16.45;60.38
44349;BME280;30068;50.986;4.564;2023-02-03T02:05:30;102791.56;;;16.52;60.45
44349;BME280;30068;50.986;4.564;2023-02-03T02:07:57;102801.34;;;16.42;60.43
44349;BME280;30068;50.986;4.564;2023-02-03T02:10:23;102789.88;;;16.51;60.23
44349;BME280;30068;50.986;4.564;2023-02-03T02:12:49;102794.63;;;16.47;60.50
44349;BME280;30068;50.986;4.564;2023-02-03T02:15:14;102795.50;;;16.48;60.31
44349;BME280;30068;50.986;4.564;2023-02-03T02:20:28;102812.47;;;16.61;59.91
44349;BME280;30068;50.986;4.564;2023-02-03T02:23:08;102780.78;;;16.52;60.18
44349;BME280;30068;50.986;4.564;2023-02-03T02:41:03;102749.94;;;16.56;59.89
44349;BME280;30068;50.986;4.564;2023-02-03T02:43:34;102741.88;;;16.56;59.95
44349;BME280;30068;50.986;4.564;2023-02-03T02:46:23;102732.75;;;16.81;59.25
44349;BME280;30068;50.986;4.564;2023-02-03T02:48:53;102740.56;;;16.62;59.45
44349;BME280;30068;50.986;4.564;2023-02-03T02:51:21;102739.88;;;16.47;60.11
44349;BME280;30068;50.986;4.564;2023-02-03T02:53:52;102752.41;;;16.59;60.01
44349;BME280;30068;50.986;4.564;2023-02-03T02:56:18;102740.13;;;16.44;59.98
44349;BME280;30068;50.986;4.564;2023-02-03T02:58:45;102742.84;;;16.55;59.83
44349;BME280;30068;50.986;4.564;2023-02-03T03:01:12;102749.91;;;16.45;60.07
44349;BME280;30068;50.986;4.564;2023-02-03T03:03:38;102761.31;;;16.48;59.97
44349;BME280;30068;50.986;4.564;2023-02-03T03:06:28;102762.28;;;16.47;60.17
44349;BME280;30068;50.986;4.564;2023-02-03T03:08:53;102752.31;;;16.61;59.64
44349;BME280;30068;50.986;4.564;2023-02-03T03:11:21;102765.19;;;16.68;59.13
44349;BME280;30068;50.986;4.564;2023-02-03T03:13:49;102741.38;;;16.51;59.70
44349;BME280;30068;50.986;4.564;2023-02-03T03:16:15;102757.78;;;16.59;59.37
44349;BME280;30068;50.986;4.564;2023-02-03T03:18:43;102760.28;;;16.62;59.51
44349;BME280;30068;50.986;4.564;2023-02-03T03:21:12;102772.59;;;16.77;58.73
44349;BME280;30068;50.986;4.564;2023-02-03T03:23:39;102770.00;;;16.52;59.45
44349;BME280;30068;50.986;4.564;2023-02-03T03:26:17;102775.16;;;16.44;59.93
44349;BME280;30068;50.986;4.564;2023-02-03T03:28:48;102790.06;;;16.61;59.32
44349;BME280;30068;50.986;4.564;2023-02-03T03:31:15;102790.28;;;16.57;59.28
44349;BME280;30068;50.986;4.564;2023-02-03T03:33:41;102782.63;;;16.51;59.56
44349;BME280;30068;50.986;4.564;2023-02-03T03:36:29;102785.84;;;16.56;59.28
44349;BME280;30068;50.986;4.564;2023-02-03T03:39:04;102776.50;;;16.49;59.42
44349;BME280;30068;50.986;4.564;2023-02-03T03:43:56;102771.22;;;16.48;59.54
44349;BME280;30068;50.986;4.564;2023-02-03T03:46:27;102773.25;;;16.57;59.33
44349;BME280;30068;50.986;4.564;2023-02-03T03:49:03;102775.41;;;16.52;59.38
44349;BME280;30068;50.986;4.564;2023-02-03T03:51:32;102776.00;;;16.79;58.68
44349;BME280;30068;50.986;4.564;2023-02-03T03:53:59;102769.22;;;16.39;59.75
44349;BME280;30068;50.986;4.564;2023-02-03T03:56:28;102762.94;;;16.51;59.59
44349;BME280;30068;50.986;4.564;2023-02-03T03:58:55;102786.44;;;16.49;59.57
44349;BME280;30068;50.986;4.564;2023-02-03T04:01:21;102770.88;;;16.52;59.37
44349;BME280;30068;50.986;4.564;2023-02-03T04:03:48;102754.31;;;16.46;59.62
44349;BME280;30068;50.986;4.564;2023-02-03T04:06:16;102757.06;;;16.57;59.16
44349;BME280;30068;50.986;4.564;2023-02-03T04:08:41;102747.56;;;16.64;58.80
44349;BME280;30068;50.986;4.564;2023-02-03T04:11:07;102752.88;;;16.53;59.52
44349;BME280;30068;50.986;4.564;2023-02-03T04:13:32;102745.84;;;16.39;59.80
44349;BME280;30068;50.986;4.564;2023-02-03T04:15:57;102748.31;;;16.42;59.66
44349;BME280;30068;50.986;4.564;2023-02-03T04:18:22;102746.59;;;16.41;59.54
44349;BME280;30068;50.986;4.564;2023-02-03T04:20:47;102747.69;;;16.39;59.72
44349;BME280;30068;50.986;4.564;2023-02-03T04:23:13;102747.47;;;16.42;59.40
44349;BME280;30068;50.986;4.564;2023-02-03T04:25:38;102745.25;;;16.47;59.21
44349;BME280;30068;50.986;4.564;2023-02-03T04:28:03;102756.09;;;16.58;58.71
44349;BME280;30068;50.986;4.564;2023-02-03T04:30:30;102742.94;;;16.42;59.32
44349;BME280;30068;50.986;4.564;2023-02-03T04:32:55;102756.50;;;16.41;59.26
44349;BME280;30068;50.986;4.564;2023-02-03T04:35:20;102749.88;;;16.34;59.89
44349;BME280;30068;50.986;4.564;2023-02-03T04:37:45;102758.91;;;16.33;60.00
44349;BME280;30068;50.986;4.564;2023-02-03T04:40:11;102763.91;;;16.50;59.62
44349;BME280;30068;50.986;4.564;2023-02-03T04:42:36;102751.28;;;16.50;59.58
44349;BME280;30068;50.986;4.564;2023-02-03T04:45:03;102754.31;;;16.46;59.73
44349;BME280;30068;50.986;4.564;2023-02-03T04:47:28;102764.59;;;16.65;59.28
44349;BME280;30068;50.986;4.564;2023-02-03T04:49:54;102768.94;;;17.01;57.63
44349;BME280;30068;50.986;4.564;2023-02-03T04:52:19;102771.81;;;16.64;58.75
44349;BME280;30068;50.986;4.564;2023-02-03T04:54:44;102764.13;;;16.47;59.34
44349;BME280;30068;50.986;4.564;2023-02-03T04:57:09;102753.34;;;16.47;59.33
44349;BME280;30068;50.986;4.564;2023-02-03T04:59:34;102761.22;;;16.50;59.35
44349;BME280;30068;50.986;4.564;2023-02-03T05:02:03;102773.94;;;16.48;59.48
44349;BME280;30068;50.986;4.564;2023-02-03T05:04:28;102774.44;;;16.53;59.78
44349;BME280;30068;50.986;4.564;2023-02-03T05:06:54;102774.78;;;16.48;59.73
44349;BME280;30068;50.986;4.564;2023-02-03T05:09:20;102766.34;;;16.53;59.74
44349;BME280;30068;50.986;4.564;2023-02-03T05:11:46;102772.84;;;16.50;59.68
44349;BME280;30068;50.986;4.564;2023-02-03T05:14:11;102784.22;;;16.43;59.87
44349;BME280;30068;50.986;4.564;2023-02-03T05:16:36;102772.09;;;16.48;59.78
44349;BME280;30068;50.986;4.564;2023-02-03T05:19:01;102775.78;;;16.58;59.39
44349;BME280;30068;50.986;4.564;2023-02-03T05:21:27;102758.72;;;16.47;59.52
44349;BME280;30068;50.986;4.564;2023-02-03T05:23:52;102761.31;;;16.48;59.42
44349;BME280;30068;50.986;4.564;2023-02-03T05:26:17;102761.91;;;16.41;59.83
44349;BME280;30068;50.986;4.564;2023-02-03T05:28:42;102758.50;;;16.50;59.34
44349;BME280;30068;50.986;4.564;2023-02-03T05:31:07;102759.75;;;16.57;58.96
44349;BME280;30068;50.986;4.564;2023-02-03T05:33:33;102761.91;;;16.41;59.36
44349;BME280;30068;50.986;4.564;2023-02-03T05:35:58;102763.16;;;16.48;59.05
44349;BME280;30068;50.986;4.564;2023-02-03T05:38:23;102764.41;;;16.55;58.93
44349;BME280;30068;50.986;4.564;2023-02-03T05:40:49;102767.97;;;16.55;58.76
44349;BME280;30068;50.986;4.564;2023-02-03T05:43:33;102774.97;;;16.58;58.52
44349;BME280;30068;50.986;4.564;2023-02-03T05:46:02;102785.31;;;16.51;58.55
44349;BME280;30068;50.986;4.564;2023-02-03T05:48:28;102792.38;;;16.65;58.12
44349;BME280;30068;50.986;4.564;2023-02-03T05:50:53;102801.00;;;16.46;58.59
44349;BME280;30068;50.986;4.564;2023-02-03T05:53:18;102793.38;;;16.40;59.01
44349;BME280;30068;50.986;4.564;2023-02-03T05:55:43;102793.38;;;16.40;59.17
44349;BME280;30068;50.986;4.564;2023-02-03T05:58:09;102805.22;;;16.38;59.20
44349;BME280;30068;50.986;4.564;2023-02-03T06:00:34;102811.16;;;16.43;58.94
44349;BME280;30068;50.986;4.564;2023-02-03T06:02:59;102798.22;;;16.59;58.45
44349;BME280;30068;50.986;4.564;2023-02-03T06:05:29;102797.16;;;16.62;58.20
44349;BME280;30068;50.986;4.564;2023-02-03T06:07:54;102794.44;;;16.38;58.98
44349;BME280;30068;50.986;4.564;2023-02-03T06:10:19;102791.44;;;16.42;58.71
44349;BME280;30068;50.986;4.564;2023-02-03T06:12:45;102788.00;;;16.51;58.56
44349;BME280;30068;50.986;4.564;2023-02-03T06:15:11;102780.53;;;16.44;58.85
44349;BME280;30068;50.986;4.564;2023-02-03T06:17:36;102785.66;;;16.36;59.11
44349;BME280;30068;50.986;4.564;2023-02-03T06:20:03;102777.09;;;16.42;58.94
44349;BME280;30068;50.986;4.564;2023-02-03T06:22:28;102788.63;;;16.44;58.81
44349;BME280;30068;50.986;4.564;2023-02-03T06:24:53;102792.91;;;16.46;58.64
44349;BME280;30068;50.986;4.564;2023-02-03T06:27:19;102791.25;;;16.33;59.28
44349;BME280;30068;50.986;4.564;2023-02-03T06:29:44;102794.69;;;16.35;59.11
44349;BME280;30068;50.986;4.564;2023-02-03T06:32:09;102802.31;;;16.41;59.05
44349;BME280;30068;50.986;4.564;2023-02-03T06:34:34;102796.19;;;16.63;58.40
44349;BME280;30068;50.986;4.564;2023-02-03T06:37:00;102796.09;;;16.51;58.35
44349;BME280;30068;50.986;4.564;2023-02-03T06:39:25;102806.09;;;16.38;58.89
44349;BME280;30068;50.986;4.564;2023-02-03T06:41:50;102798.25;;;16.35;58.97
44349;BME280;30068;50.986;4.564;2023-02-03T06:44:16;102796.31;;;16.61;57.88
44349;BME280;30068;50.986;4.564;2023-02-03T06:46:41;102802.44;;;16.39;58.60
44349;BME280;30068;50.986;4.564;2023-02-03T06:49:06;102807.31;;;16.34;58.83
44349;BME280;30068;50.986;4.564;2023-02-03T06:51:32;102816.88;;;16.38;58.59
44349;BME280;30068;50.986;4.564;2023-02-03T06:53:57;102819.06;;;16.33;58.62
44349;BME280;30068;50.986;4.564;2023-02-03T06:56:23;102810.97;;;16.33;58.93
44349;BME280;30068;50.986;4.564;2023-02-03T06:58:48;102806.16;;;16.26;59.27
44349;BME280;30068;50.986;4.564;2023-02-03T07:01:13;102803.13;;;16.30;58.94
44349;BME280;30068;50.986;4.564;2023-02-03T07:03:38;102798.25;;;16.35;58.91
44349;BME280;30068;50.986;4.564;2023-02-03T07:06:04;102808.38;;;16.32;58.83
44349;BME280;30068;50.986;4.564;2023-02-03T07:08:29;102806.22;;;16.37;58.50
44349;BME280;30068;50.986;4.564;2023-02-03T07:10:54;102814.25;;;16.49;57.97
44349;BME280;30068;50.986;4.564;2023-02-03T07:13:20;102819.81;;;16.35;58.57
44349;BME280;30068;50.986;4.564;2023-02-03T07:15:45;102808.53;;;16.30;58.48
44349;BME280;30068;50.986;4.564;2023-02-03T07:18:10;102798.44;;;16.21;58.85
44349;BME280;30068;50.986;4.564;2023-02-03T07:20:35;102802.97;;;16.44;57.90
44349;BME280;30068;50.986;4.564;2023-02-03T07:23:00;102780.75;;;16.41;58.06
44349;BME280;30068;50.986;4.564;2023-02-03T07:25:26;102768.44;;;16.26;58.57
44349;BME280;30068;50.986;4.564;2023-02-03T07:27:51;102770.81;;;16.30;58.28
44349;BME280;30068;50.986;4.564;2023-02-03T07:30:16;102780.59;;;16.31;58.02
44349;BME280;30068;50.986;4.564;2023-02-03T07:32:45;102784.59;;;16.26;58.23
44349;BME280;30068;50.986;4.564;2023-02-03T07:35:10;102800.22;;;16.09;58.46
44349;BME280;30068;50.986;4.564;2023-02-03T07:37:35;102809.41;;;16.18;58.45
44349;BME280;30068;50.986;4.564;2023-02-03T07:40:01;102805.81;;;16.06;58.71
44349;BME280;30068;50.986;4.564;2023-02-03T07:42:26;102811.16;;;16.19;58.46
44349;BME280;30068;50.986;4.564;2023-02-03T07:44:51;102818.16;;;16.22;58.31
44349;BME280;30068;50.986;4.564;2023-02-03T07:47:16;102819.97;;;16.21;58.26
44349;BME280;30068;50.986;4.564;2023-02-03T07:49:41;102820.59;;;16.25;58.34
44349;BME280;30068;50.986;4.564;2023-02-03T07:52:07;102824.09;;;16.14;58.58
44349;BME280;30068;50.986;4.564;2023-02-03T07:54:32;102824.72;;;16.17;58.40
44349;BME280;30068;50.986;4.564;2023-02-03T07:56:57;102824.97;;;16.14;58.19
44349;BME280;30068;50.986;4.564;2023-02-03T07:59:22;102824.97;;;16.14;58.25
44349;BME280;30068;50.986;4.564;2023-02-03T08:01:47;102835.69;;;16.03;58.65
44349;BME280;30068;50.986;4.564;2023-02-03T08:04:13;102846.31;;;16.05;58.47
44349;BME280;30068;50.986;4.564;2023-02-03T08:06:41;102844.69;;;16.15;58.49
44349;BME280;30068;50.986;4.564;2023-02-03T08:09:06;102835.69;;;16.03;58.73
44349;BME280;30068;50.986;4.564;2023-02-03T08:11:31;102848.69;;;16.09;58.51
44349;BME280;30068;50.986;4.564;2023-02-03T08:13:56;102843.75;;;16.03;58.54
44349;BME280;30068;50.986;4.564;2023-02-03T08:16:21;102854.59;;;16.14;58.58
44349;BME280;30068;50.986;4.564;2023-02-03T08:18:47;102869.13;;;16.12;58.59
44349;BME280;30068;50.986;4.564;2023-02-03T08:21:12;102873.66;;;16.11;58.48
44349;BME280;30068;50.986;4.564;2023-02-03T08:23:37;102871.16;;;16.21;58.52
44349;BME280;30068;50.986;4.564;2023-02-03T08:26:02;102869.47;;;16.07;58.53
44349;BME280;30068;50.986;4.564;2023-02-03T08:28:28;102858.81;;;16.06;58.45
44349;BME280;30068;50.986;4.564;2023-02-03T08:30:53;102846.22;;;16.06;58.69
44349;BME280;30068;50.986;4.564;2023-02-03T08:33:18;102853.63;;;16.15;58.17
44349;BME280;30068;50.986;4.564;2023-02-03T08:35:44;102865.31;;;16.03;58.52
44349;BME280;30068;50.986;4.564;2023-02-03T08:38:09;102860.19;;;16.11;58.42
44349;BME280;30068;50.986;4.564;2023-02-03T08:40:35;102853.63;;;16.15;58.43
44349;BME280;30068;50.986;4.564;2023-02-03T08:43:00;102868.88;;;16.28;57.93
44349;BME280;30068;50.986;4.564;2023-02-03T08:45:25;102869.81;;;16.03;58.74
44349;BME280;30068;50.986;4.564;2023-02-03T08:47:50;102879.31;;;15.96;58.79
44349;BME280;30068;50.986;4.564;2023-02-03T08:50:16;102874.66;;;15.98;58.55
44349;BME280;30068;50.986;4.564;2023-02-03T08:52:42;102859.00;;;16.15;58.34
44349;BME280;30068;50.986;4.564;2023-02-03T08:55:07;102862.72;;;16.02;58.75
44349;BME280;30068;50.986;4.564;2023-02-03T08:57:33;102876.91;;;16.04;58.53
44349;BME280;30068;50.986;4.564;2023-02-03T08:59:58;102873.06;;;15.95;58.74
44349;BME280;30068;50.986;4.564;2023-02-03T09:02:23;102893.06;;;16.04;58.57
44349;BME280;30068;50.986;4.564;2023-02-03T09:04:48;102894.47;;;16.09;58.58
44349;BME280;30068;50.986;4.564;2023-02-03T09:07:14;102903.50;;;16.45;57.62
44349;BME280;30068;50.986;4.564;2023-02-03T09:09:40;102905.22;;;16.46;57.84
44349;BME280;30068;50.986;4.564;2023-02-03T09:12:06;102902.22;;;16.38;57.68
44349;BME280;30068;50.986;4.564;2023-02-03T09:14:31;102919.00;;;16.17;58.29
44349;BME280;30068;50.986;4.564;2023-02-03T09:16:58;102920.84;;;16.04;59.12
44349;BME280;30068;50.986;4.564;2023-02-03T09:19:23;102920.66;;;16.07;59.25
44349;BME280;30068;50.986;4.564;2023-02-03T09:21:49;102924.16;;;16.20;58.84
44349;BME280;30068;50.986;4.564;2023-02-03T09:24:15;102936.34;;;16.13;59.17
44349;BME280;30068;50.986;4.564;2023-02-03T09:26:40;102940.06;;;14.70;58.91
44349;BME280;30068;50.986;4.564;2023-02-03T09:29:05;102935.44;;;14.45;59.31
44349;BME280;30068;50.986;4.564;2023-02-03T09:31:31;102926.16;;;13.52;61.67
44349;BME280;30068;50.986;4.564;2023-02-03T09:33:57;102919.69;;;13.26;63.00
44349;BME280;30068;50.986;4.564;2023-02-03T09:36:22;102931.44;;;14.38;60.00
44349;BME280;30068;50.986;4.564;2023-02-03T09:38:48;102930.81;;;14.74;59.39
44349;BME280;30068;50.986;4.564;2023-02-03T09:46:20;102927.84;;;15.18;58.44
44349;BME280;30068;50.986;4.564;2023-02-03T09:48:47;102917.41;;;15.26;58.40
44349;BME280;30068;50.986;4.564;2023-02-03T09:51:17;102917.94;;;15.31;58.79
44349;BME280;30068;50.986;4.564;2023-02-03T09:53:47;102926.34;;;15.39;58.33
44349;BME280;30068;50.986;4.564;2023-02-03T09:56:22;102923.66;;;15.39;58.91
44349;BME280;30068;50.986;4.564;2023-02-03T09:58:49;102922.38;;;15.45;58.79
44349;BME280;30068;50.986;4.564;2023-02-03T10:01:15;102936.38;;;15.50;58.75
44349;BME280;30068;50.986;4.564;2023-02-03T10:03:45;102925.59;;;15.50;59.03
44349;BME280;30068;50.986;4.564;2023-02-03T10:19:09;102931.88;;;15.63;59.21
44349;BME280;30068;50.986;4.564;2023-02-03T10:21:36;102928.22;;;15.64;59.37
44349;BME280;30068;50.986;4.564;2023-02-03T10:24:04;102925.63;;;15.63;59.58
44349;BME280;30068;50.986;4.564;2023-02-03T10:26:33;102942.53;;;15.65;59.86
44349;BME280;30068;50.986;4.564;2023-02-03T10:29:04;102923.69;;;15.65;59.88
44349;BME280;30068;50.986;4.564;2023-02-03T10:31:33;102940.38;;;15.70;59.69
44349;BME280;30068;50.986;4.564;2023-02-03T10:39:21;102949.66;;;15.66;59.73
44349;BME280;30068;50.986;4.564;2023-02-03T10:41:48;102950.19;;;15.71;59.93
44349;BME280;30068;50.986;4.564;2023-02-03T10:44:13;102950.59;;;15.77;59.81
44349;BME280;30068;50.986;4.564;2023-02-03T10:46:39;102956.97;;;15.76;59.78
44349;BME280;30068;50.986;4.564;2023-02-03T10:49:06;102960.94;;;15.71;60.27
44349;BME280;30068;50.986;4.564;2023-02-03T10:51:43;102974.19;;;15.87;59.62
44349;BME280;30068;50.986;4.564;2023-02-03T10:54:25;102971.28;;;15.77;60.12
44349;BME280;30068;50.986;4.564;2023-02-03T10:56:51;102976.91;;;15.74;60.25
44349;BME280;30068;50.986;4.564;2023-02-03T10:59:26;102971.72;;;15.71;60.32
44349;BME280;30068;50.986;4.564;2023-02-03T11:01:52;102969.97;;;15.70;60.59
44349;BME280;30068;50.986;4.564;2023-02-03T11:04:28;102980.22;;;15.65;58.40
44349;BME280;30068;50.986;4.564;2023-02-03T11:07:00;102985.00;;;15.34;60.17
44349;BME280;30068;50.986;4.564;2023-02-03T11:09:30;102968.28;;;15.82;59.05
44349;BME280;30068;50.986;4.564;2023-02-03T11:12:13;102964.59;;;15.70;59.34
44349;BME280;30068;50.986;4.564;2023-02-03T11:17:42;102971.25;;;16.28;58.40
44349;BME280;30068;50.986;4.564;2023-02-03T11:20:12;102968.34;;;16.31;58.90
44349;BME280;30068;50.986;4.564;2023-02-03T11:25:17;102952.91;;;16.33;58.92
44349;BME280;30068;50.986;4.564;2023-02-03T11:27:44;102958.28;;;16.33;59.42
44349;BME280;30068;50.986;4.564;2023-02-03T11:30:16;102965.06;;;16.38;59.25
44349;BME280;30068;50.986;4.564;2023-02-03T11:32:45;102939.94;;;16.38;59.35
44349;BME280;30068;50.986;4.564;2023-02-03T11:35:18;102942.94;;;16.46;59.20
44349;BME280;30068;50.986;4.564;2023-02-03T11:37:46;102959.53;;;16.52;59.79
44349;BME280;30068;50.986;4.564;2023-02-03T11:42:37;102935.50;;;16.62;59.59
44349;BME280;30068;50.986;4.564;2023-02-03T11:45:13;102939.28;;;16.47;60.44
44349;BME280;30068;50.986;4.564;2023-02-03T11:47:49;102935.09;;;16.43;60.38
44349;BME280;30068;50.986;4.564;2023-02-03T11:50:20;102933.91;;;16.47;59.95
44349;BME280;30068;50.986;4.564;2023-02-03T11:55:24;102953.97;;;16.43;60.40
44349;BME280;30068;50.986;4.564;2023-02-03T12:03:43;102957.38;;;16.45;60.24
44349;BME280;30068;50.986;4.564;2023-02-03T12:09:02;102970.75;;;16.46;60.05
44349;BME280;30068;50.986;4.564;2023-02-03T12:16:45;102980.28;;;15.51;59.00
44349;BME280;30068;50.986;4.564;2023-02-03T12:21:42;102975.72;;;16.03;58.78
44349;BME280;30068;50.986;4.564;2023-02-03T12:29:12;102974.38;;;16.22;58.69
44349;BME280;30068;50.986;4.564;2023-02-03T12:31:41;102969.84;;;16.22;58.87
44349;BME280;30068;50.986;4.564;2023-02-03T12:36:51;102968.75;;;16.25;59.27
44349;BME280;30068;50.986;4.564;2023-02-03T12:39:25;102971.69;;;16.22;59.58
44349;BME280;30068;50.986;4.564;2023-02-03T12:42:04;102980.09;;;16.30;59.60
44349;BME280;30068;50.986;4.564;2023-02-03T12:44:33;102969.97;;;16.20;60.06
44349;BME280;30068;50.986;4.564;2023-02-03T12:47:13;102957.47;;;16.19;60.30
44349;BME280;30068;50.986;4.564;2023-02-03T12:49:44;102957.47;;;16.19;60.27
44349;BME280;30068;50.986;4.564;2023-02-03T12:52:15;102955.28;;;16.25;60.17
44349;BME280;30068;50.986;4.564;2023-02-03T12:57:32;102960.69;;;16.25;60.23
44349;BME280;30068;50.986;4.564;2023-02-03T13:00:01;102967.16;;;16.22;60.57
44349;BME280;30068;50.986;4.564;2023-02-03T13:02:28;102958.44;;;16.18;60.52
44349;BME280;30068;50.986;4.564;2023-02-03T13:05:00;102949.19;;;16.23;60.62
44349;BME280;30068;50.986;4.564;2023-02-03T13:10:11;102946.78;;;16.18;60.87
44349;BME280;30068;50.986;4.564;2023-02-03T13:12:40;102951.56;;;16.14;60.58
44349;BME280;30068;50.986;4.564;2023-02-03T13:20:35;102941.59;;;16.28;60.37
44349;BME280;30068;50.986;4.564;2023-02-03T13:23:04;102953.03;;;16.18;61.05
44349;BME280;30068;50.986;4.564;2023-02-03T13:33:07;102943.06;;;16.08;61.63
44349;BME280;30068;50.986;4.564;2023-02-03T13:43:49;102954.59;;;16.10;61.55
44349;BME280;30068;50.986;4.564;2023-02-03T13:46:18;102958.88;;;16.12;61.58
44349;BME280;30068;50.986;4.564;2023-02-03T13:48:44;102969.03;;;16.09;61.71
44349;BME280;30068;50.986;4.564;2023-02-03T13:51:14;102956.84;;;16.16;61.59
44349;BME280;30068;50.986;4.564;2023-02-03T13:53:41;102958.13;;;16.10;62.02
44349;BME280;30068;50.986;4.564;2023-02-03T13:56:14;102968.47;;;16.04;62.30
44349;BME280;30068;50.986;4.564;2023-02-03T13:58:40;102951.47;;;16.03;62.55
44349;BME280;30068;50.986;4.564;2023-02-03T14:01:26;102956.53;;;16.08;62.11
44349;BME280;30068;50.986;4.564;2023-02-03T14:03:51;102960.53;;;16.02;62.24
44349;BME280;30068;50.986;4.564;2023-02-03T14:09:00;102952.19;;;16.05;62.40
44349;BME280;30068;50.986;4.564;2023-02-03T14:19:00;102974.94;;;16.01;62.61
44349;BME280;30068;50.986;4.564;2023-02-03T14:21:25;102973.75;;;16.05;62.26
44349;BME280;30068;50.986;4.564;2023-02-03T14:23:56;102977.66;;;16.01;62.67
44349;BME280;30068;50.986;4.564;2023-02-03T14:26:24;102980.53;;;15.98;62.99
44349;BME280;30068;50.986;4.564;2023-02-03T14:28:53;102986.34;;;16.05;62.63
44349;BME280;30068;50.986;4.564;2023-02-03T14:31:19;102981.19;;;16.14;62.41
44349;BME280;30068;50.986;4.564;2023-02-03T14:33:56;102979.22;;;16.29;62.06
44349;BME280;30068;50.986;4.564;2023-02-03T14:36:28;102986.31;;;16.43;61.51
44349;BME280;30068;50.986;4.564;2023-02-03T14:38:54;102986.47;;;16.52;61.12
44349;BME280;30068;50.986;4.564;2023-02-03T14:41:23;102991.34;;;16.60;61.00
44349;BME280;30068;50.986;4.564;2023-02-03T14:49:23;102999.28;;;16.74;61.04
44349;BME280;30068;50.986;4.564;2023-02-03T15:02:39;102999.13;;;16.88;61.00